sensor_id;sensor_type;location;lat;lon;timestamp;pressure;altitude;pressure_sealevel;temperature;humidity
21633;BME280;48765;51.568;8.840;2022-08-20T00:01:37;98314.63;;;19.43;100.00
21633;BME280;48765;51.568;8.840;2022-08-20T00:04:04;98314.19;;;19.33;100.00
21633;BME280;48765;51.568;8.840;2022-08-20T00:06:31;98316.00;;;19.33;100.00
21633;BME280;48765;51.568;8.840;2022-08-20T00:08:58;98303.06;;;19.02;100.00
21633;BME280;48765;51.568;8.840;2022-08-20T00:11:25;98304.97;;;19.19;100.00
21633;BME280;48765;51.568;8.840;2022-08-20T00:13:55;98302.44;;;18.95;100.00
21633;BME280;48765;51.568;8.840;2022-08-20T00:16:23;98314.00;;;18.97;100.00
21633;BME280;48765;51.568;8.840;2022-08-20T00:18:51;98309.13;;;19.05;100.00
21633;BME280;48765;51.568;8.840;2022-08-20T00:21:18;98316.28;;;19.06;100.00
21633;BME280;48765;51.568;8.840;2022-08-20T00:23:47;98317.56;;;18.76;100.00
21633;BME280;48765;51.568;8.840;2022-08-20T00:26:14;98308.75;;;18.94;100.00
21633;BME280;48765;51.568;8.840;2022-08-20T00:28:41;98309.13;;;18.85;100.00
21633;BME280;48765;51.568;8.840;2022-08-20T00:31:11;98314.31;;;18.89;100.00
21633;BME280;48765;51.568;8.840;2022-08-20T00:33:39;98307.09;;;18.70;100.00
21633;BME280;48765;51.568;8.840;2022-08-20T00:36:06;98315.91;;;18.73;100.00
21633;BME280;48765;51.568;8.840;2022-08-20T00:38:35;98318.06;;;18.85;100.00
21633;BME280;48765;51.568;8.840;2022-08-20T00:41:03;98315.31;;;18.65;100.00
21633;BME280;48765;51.568;8.840;2022-08-20T00:43:32;98310.88;;;18.86;100.00
21633;BME280;48765;51.568;8.840;2022-08-20T00:46:01;98305.94;;;18.53;100.00
21633;BME280;48765;51.568;8.840;2022-08-20T00:48:31;98314.78;;;18.79;100.00
21633;BME280;48765;51.568;8.840;2022-08-20T00:51:00;98311.53;;;18.71;100.00
21633;BME280;48765;51.568;8.840;2022-08-20T00:53:27;98323.97;;;18.73;100.00
21633;BME280;48765;51.568;8.840;2022-08-20T00:55:55;98316.91;;;18.91;100.00
21633;BME280;48765;51.568;8.840;2022-08-20T00:58:22;98324.75;;;18.97;100.00
21633;BME280;48765;51.568;8.840;2022-08-20T01:00:49;98323.44;;;18.85;100.00
21633;BME280;48765;51.568;8.840;2022-08-20T01:03:17;98324.44;;;18.83;100.00
21633;BME280;48765;51.568;8.840;2022-08-20T01:05:47;98330.78;;;19.02;100.00
21633;BME280;48765;51.568;8.840;2022-08-20T01:08:14;98335.03;;;18.86;100.00
21633;BME280;48765;51.568;8.840;2022-08-20T01:10:43;98337.69;;;18.87;100.00
21633;BME280;48765;51.568;8.840;2022-08-20T01:13:22;98332.91;;;18.94;100.00
21633;BME280;48765;51.568;8.840;2022-08-20T01:15:50;98337.00;;;18.82;100.00
21633;BME280;48765;51.568;8.840;2022-08-20T01:18:19;98335.03;;;18.86;100.00
21633;BME280;48765;51.568;8.840;2022-08-20T01:20:50;98338.94;;;18.79;100.00
21633;BME280;48765;51.568;8.840;2022-08-20T01:23:20;98337.09;;;19.01;100.00
21633;BME280;48765;51.568;8.840;2022-08-20T01:25:57;98334.16;;;19.07;100.00
21633;BME280;48765;51.568;8.840;2022-08-20T01:28:28;98340.41;;;18.86;100.00
21633;BME280;48765;51.568;8.840;2022-08-20T01:30:56;98336.81;;;18.87;100.00
21633;BME280;48765;51.568;8.840;2022-08-20T01:33:23;98330.41;;;18.89;100.00
21633;BME280;48765;51.568;8.840;2022-08-20T01:35:51;98337.63;;;18.89;100.00
21633;BME280;48765;51.568;8.840;2022-08-20T01:38:19;98331.50;;;18.85;100.00
21633;BME280;48765;51.568;8.840;2022-08-20T01:40:51;98341.25;;;18.88;100.00
21633;BME280;48765;51.568;8.840;2022-08-20T01:43:25;98345.41;;;18.95;100.00
21633;BME280;48765;51.568;8.840;2022-08-20T01:45:52;98339.31;;;18.92;100.00
21633;BME280;48765;51.568;8.840;2022-08-20T01:48:20;98339.91;;;18.98;100.00
21633;BME280;48765;51.568;8.840;2022-08-20T01:50:49;98345.00;;;19.04;100.00
21633;BME280;48765;51.568;8.840;2022-08-20T01:53:20;98348.63;;;19.03;100.00
21633;BME280;48765;51.568;8.840;2022-08-20T01:55:50;98350.78;;;18.95;100.00
21633;BME280;48765;51.568;8.840;2022-08-20T01:58:17;98357.38;;;19.08;100.00
21633;BME280;48765;51.568;8.840;2022-08-20T02:00:45;98346.63;;;19.08;100.00
21633;BME280;48765;51.568;8.840;2022-08-20T02:03:12;98351.50;;;19.21;100.00
21633;BME280;48765;51.568;8.840;2022-08-20T02:05:39;98348.72;;;19.22;100.00
21633;BME280;48765;51.568;8.840;2022-08-20T02:08:06;98343.94;;;19.08;100.00
21633;BME280;48765;51.568;8.840;2022-08-20T02:10:33;98342.88;;;19.12;100.00
21633;BME280;48765;51.568;8.840;2022-08-20T02:13:00;98353.53;;;19.14;100.00
21633;BME280;48765;51.568;8.840;2022-08-20T02:15:27;98352.44;;;19.20;100.00
21633;BME280;48765;51.568;8.840;2022-08-20T02:17:55;98339.84;;;19.00;100.00
21633;BME280;48765;51.568;8.840;2022-08-20T02:20:26;98338.97;;;18.99;100.00
21633;BME280;48765;51.568;8.840;2022-08-20T02:22:55;98344.63;;;19.13;100.00
21633;BME280;48765;51.568;8.840;2022-08-20T02:25:24;98337.50;;;19.12;100.00
21633;BME280;48765;51.568;8.840;2022-08-20T02:27:52;98330.50;;;19.08;100.00
21633;BME280;48765;51.568;8.840;2022-08-20T02:30:20;98337.63;;;19.09;100.00
21633;BME280;48765;51.568;8.840;2022-08-20T02:32:47;98334.41;;;19.01;100.00
21633;BME280;48765;51.568;8.840;2022-08-20T02:35:16;98331.94;;;19.17;100.00
21633;BME280;48765;51.568;8.840;2022-08-20T02:37:43;98329.38;;;19.14;100.00
21633;BME280;48765;51.568;8.840;2022-08-20T02:40:12;98336.56;;;19.13;100.00
21633;BME280;48765;51.568;8.840;2022-08-20T02:42:39;98333.41;;;19.04;100.00
21633;BME280;48765;51.568;8.840;2022-08-20T02:45:07;98331.16;;;18.93;100.00
21633;BME280;48765;51.568;8.840;2022-08-20T02:47:35;98337.09;;;19.01;100.00
21633;BME280;48765;51.568;8.840;2022-08-20T02:50:03;98337.09;;;19.01;100.00
21633;BME280;48765;51.568;8.840;2022-08-20T02:52:32;98336.22;;;19.01;100.00
21633;BME280;48765;51.568;8.840;2022-08-20T02:54:59;98339.16;;;18.95;100.00
21633;BME280;48765;51.568;8.840;2022-08-20T02:57:26;98345.00;;;19.04;100.00
21633;BME280;48765;51.568;8.840;2022-08-20T02:59:53;98342.13;;;19.09;100.00
21633;BME280;48765;51.568;8.840;2022-08-20T03:02:21;98348.25;;;19.12;100.00
21633;BME280;48765;51.568;8.840;2022-08-20T03:04:47;98335.75;;;19.11;100.00
21633;BME280;48765;51.568;8.840;2022-08-20T03:07:15;98339.00;;;19.20;100.00
21633;BME280;48765;51.568;8.840;2022-08-20T03:09:43;98336.22;;;19.01;100.00
21633;BME280;48765;51.568;8.840;2022-08-20T03:12:10;98339.78;;;19.01;100.00
21633;BME280;48765;51.568;8.840;2022-08-20T03:14:37;98339.91;;;18.98;100.00
21633;BME280;48765;51.568;8.840;2022-08-20T03:17:04;98343.19;;;19.05;100.00
21633;BME280;48765;51.568;8.840;2022-08-20T03:19:31;98336.94;;;19.04;100.00
21633;BME280;48765;51.568;8.840;2022-08-20T03:21:58;98341.13;;;19.11;100.00
21633;BME280;48765;51.568;8.840;2022-08-20T03:24:25;98349.59;;;19.02;100.00
21633;BME280;48765;51.568;8.840;2022-08-20T03:26:53;98341.53;;;19.02;100.00
21633;BME280;48765;51.568;8.840;2022-08-20T03:29:20;98343.28;;;19.03;100.00
21633;BME280;48765;51.568;8.840;2022-08-20T03:31:47;98336.94;;;19.04;100.00
21633;BME280;48765;51.568;8.840;2022-08-20T03:34:14;98335.88;;;19.08;100.00
21633;BME280;48765;51.568;8.840;2022-08-20T03:36:41;98338.00;;;19.00;100.00
21633;BME280;48765;51.568;8.840;2022-08-20T03:39:08;98343.38;;;19.00;100.00
21633;BME280;48765;51.568;8.840;2022-08-20T03:41:37;98348.63;;;19.03;100.00
21633;BME280;48765;51.568;8.840;2022-08-20T03:44:05;98353.25;;;19.00;100.00
21633;BME280;48765;51.568;8.840;2022-08-20T03:46:32;98359.88;;;18.91;100.00
21633;BME280;48765;51.568;8.840;2022-08-20T03:49:00;98360.91;;;18.88;100.00
21633;BME280;48765;51.568;8.840;2022-08-20T03:51:27;98362.75;;;19.08;100.00
21633;BME280;48765;51.568;8.840;2022-08-20T03:53:54;98360.06;;;19.08;100.00
21633;BME280;48765;51.568;8.840;2022-08-20T03:56:21;98364.66;;;19.06;100.00
21633;BME280;48765;51.568;8.840;2022-08-20T03:58:47;98383.69;;;19.00;100.00
21633;BME280;48765;51.568;8.840;2022-08-20T04:01:16;98381.41;;;18.68;100.00
21633;BME280;48765;51.568;8.840;2022-08-20T04:03:43;98387.31;;;18.55;100.00
21633;BME280;48765;51.568;8.840;2022-08-20T04:06:10;98386.34;;;18.56;100.00
21633;BME280;48765;51.568;8.840;2022-08-20T04:08:38;98387.31;;;18.55;100.00
21633;BME280;48765;51.568;8.840;2022-08-20T04:11:06;98384.34;;;18.61;100.00
21633;BME280;48765;51.568;8.840;2022-08-20T04:13:33;98389.88;;;18.58;100.00
21633;BME280;48765;51.568;8.840;2022-08-20T04:16:00;98375.25;;;18.65;100.00
21633;BME280;48765;51.568;8.840;2022-08-20T04:18:34;98386.25;;;18.59;100.00
21633;BME280;48765;51.568;8.840;2022-08-20T04:21:03;98384.28;;;18.41;100.00
21633;BME280;48765;51.568;8.840;2022-08-20T04:23:30;98386.41;;;18.33;100.00
21633;BME280;48765;51.568;8.840;2022-08-20T04:25:57;98396.25;;;18.32;100.00
21633;BME280;48765;51.568;8.840;2022-08-20T04:28:26;98387.59;;;18.48;100.00
21633;BME280;48765;51.568;8.840;2022-08-20T04:30:53;98398.31;;;18.26;100.00
21633;BME280;48765;51.568;8.840;2022-08-20T04:33:20;98390.72;;;18.37;100.00
21633;BME280;48765;51.568;8.840;2022-08-20T04:35:49;98386.22;;;18.37;100.00
21633;BME280;48765;51.568;8.840;2022-08-20T04:38:17;98387.47;;;18.51;100.00
21633;BME280;48765;51.568;8.840;2022-08-20T04:40:44;98389.66;;;18.41;100.00
21633;BME280;48765;51.568;8.840;2022-08-20T04:43:22;98382.13;;;18.51;100.00
21633;BME280;48765;51.568;8.840;2022-08-20T04:45:50;98387.38;;;18.54;100.00
21633;BME280;48765;51.568;8.840;2022-08-20T04:48:17;98393.34;;;18.60;100.00
21633;BME280;48765;51.568;8.840;2022-08-20T04:50:45;98400.63;;;18.58;100.00
21633;BME280;48765;51.568;8.840;2022-08-20T04:53:14;98395.25;;;18.58;100.00
21633;BME280;48765;51.568;8.840;2022-08-20T04:55:42;98393.97;;;18.45;100.00
21633;BME280;48765;51.568;8.840;2022-08-20T04:58:11;98399.09;;;18.51;100.00
21633;BME280;48765;51.568;8.840;2022-08-20T05:00:38;98401.19;;;18.43;100.00
21633;BME280;48765;51.568;8.840;2022-08-20T05:03:05;98396.50;;;18.48;100.00
21633;BME280;48765;51.568;8.840;2022-08-20T05:05:33;98402.22;;;18.62;100.00
21633;BME280;48765;51.568;8.840;2022-08-20T05:08:00;98400.84;;;18.52;100.00
21633;BME280;48765;51.568;8.840;2022-08-20T05:10:29;98405.97;;;18.58;100.00
21633;BME280;48765;51.568;8.840;2022-08-20T05:12:56;98409.72;;;18.54;100.00
21633;BME280;48765;51.568;8.840;2022-08-20T05:15:23;98402.72;;;18.50;100.00
21633;BME280;48765;51.568;8.840;2022-08-20T05:17:53;98405.19;;;18.33;100.00
21633;BME280;48765;51.568;8.840;2022-08-20T05:20:20;98406.44;;;18.46;100.00
21633;BME280;48765;51.568;8.840;2022-08-20T05:22:48;98408.69;;;18.35;100.00
21633;BME280;48765;51.568;8.840;2022-08-20T05:25:15;98413.09;;;18.59;100.00
21633;BME280;48765;51.568;8.840;2022-08-20T05:27:45;98405.72;;;18.64;100.00
21633;BME280;48765;51.568;8.840;2022-08-20T05:30:12;98411.94;;;18.43;100.00
21633;BME280;48765;51.568;8.840;2022-08-20T05:32:39;98413.19;;;18.56;100.00
21633;BME280;48765;51.568;8.840;2022-08-20T05:35:07;98423.81;;;18.59;100.00
21633;BME280;48765;51.568;8.840;2022-08-20T05:37:34;98421.00;;;18.62;100.00
21633;BME280;48765;51.568;8.840;2022-08-20T05:40:06;98417.78;;;18.54;100.00
21633;BME280;48765;51.568;8.840;2022-08-20T05:42:33;98422.97;;;18.59;100.00
21633;BME280;48765;51.568;8.840;2022-08-20T05:45:01;98426.38;;;18.62;100.00
21633;BME280;48765;51.568;8.840;2022-08-20T05:47:28;98427.97;;;18.68;100.00
21633;BME280;48765;51.568;8.840;2022-08-20T05:49:55;98429.94;;;18.63;100.00
21633;BME280;48765;51.568;8.840;2022-08-20T05:52:22;98428.88;;;18.69;100.00
21633;BME280;48765;51.568;8.840;2022-08-20T05:54:49;98432.28;;;18.72;100.00
21633;BME280;48765;51.568;8.840;2022-08-20T05:57:17;98415.88;;;18.80;100.00
21633;BME280;48765;51.568;8.840;2022-08-20T05:59:44;98422.97;;;18.81;100.00
21633;BME280;48765;51.568;8.840;2022-08-20T06:02:13;98423.84;;;18.81;100.00
21633;BME280;48765;51.568;8.840;2022-08-20T06:04:53;98425.44;;;18.87;100.00
21633;BME280;48765;51.568;8.840;2022-08-20T06:07:20;98434.09;;;18.72;100.00
21633;BME280;48765;51.568;8.840;2022-08-20T06:09:47;98430.09;;;18.82;100.00
21633;BME280;48765;51.568;8.840;2022-08-20T06:12:15;98426.03;;;18.72;100.00
21633;BME280;48765;51.568;8.840;2022-08-20T06:14:42;98440.97;;;18.79;100.00
21633;BME280;48765;51.568;8.840;2022-08-20T06:17:14;98435.25;;;18.88;100.00
21633;BME280;48765;51.568;8.840;2022-08-20T06:19:42;98430.84;;;18.85;100.00
21633;BME280;48765;51.568;8.840;2022-08-20T06:22:09;98424.63;;;18.85;100.00
21633;BME280;48765;51.568;8.840;2022-08-20T06:24:36;98431.63;;;18.89;100.00
21633;BME280;48765;51.568;8.840;2022-08-20T06:27:03;98428.13;;;18.87;100.00
21633;BME280;48765;51.568;8.840;2022-08-20T06:29:31;98427.41;;;18.82;100.00
21633;BME280;48765;51.568;8.840;2022-08-20T06:31:58;98429.53;;;18.96;100.00
21633;BME280;48765;51.568;8.840;2022-08-20T06:34:27;98425.59;;;19.04;100.00
21633;BME280;48765;51.568;8.840;2022-08-20T06:36:54;98430.09;;;19.04;100.00
21633;BME280;48765;51.568;8.840;2022-08-20T06:39:21;98430.28;;;18.99;100.00
21633;BME280;48765;51.568;8.840;2022-08-20T06:41:48;98425.50;;;19.28;100.00
21633;BME280;48765;51.568;8.840;2022-08-20T06:44:16;98426.34;;;19.30;100.00
21633;BME280;48765;51.568;8.840;2022-08-20T06:46:43;98425.00;;;19.20;100.00
21633;BME280;48765;51.568;8.840;2022-08-20T06:49:10;98428.41;;;19.23;100.00
21633;BME280;48765;51.568;8.840;2022-08-20T06:51:39;98429.22;;;19.25;100.00
21633;BME280;48765;51.568;8.840;2022-08-20T06:54:06;98428.34;;;19.25;100.00
21633;BME280;48765;51.568;8.840;2022-08-20T06:56:33;98423.75;;;19.49;100.00
21633;BME280;48765;51.568;8.840;2022-08-20T06:58:59;98428.75;;;19.56;100.00
21633;BME280;48765;51.568;8.840;2022-08-20T07:01:27;98427.63;;;19.41;100.00
21633;BME280;48765;51.568;8.840;2022-08-20T07:03:54;98435.97;;;19.56;100.00
21633;BME280;48765;51.568;8.840;2022-08-20T07:06:24;98437.78;;;19.55;100.00
21633;BME280;48765;51.568;8.840;2022-08-20T07:08:52;98429.41;;;19.63;100.00
21633;BME280;48765;51.568;8.840;2022-08-20T07:11:19;98427.84;;;19.98;100.00
21633;BME280;48765;51.568;8.840;2022-08-20T07:13:46;98426.22;;;19.94;100.00
21633;BME280;48765;51.568;8.840;2022-08-20T07:16:13;98425.56;;;20.09;100.00
21633;BME280;48765;51.568;8.840;2022-08-20T07:18:40;98434.03;;;19.80;100.00
21633;BME280;48765;51.568;8.840;2022-08-20T07:21:07;98435.84;;;19.79;100.00
21633;BME280;48765;51.568;8.840;2022-08-20T07:23:36;98444.13;;;19.95;100.00
21633;BME280;48765;51.568;8.840;2022-08-20T07:26:04;98435.78;;;20.01;100.00
21633;BME280;48765;51.568;8.840;2022-08-20T07:28:32;98448.28;;;20.02;100.00
21633;BME280;48765;51.568;8.840;2022-08-20T07:30:59;98445.28;;;20.29;100.00
21633;BME280;48765;51.568;8.840;2022-08-20T07:33:43;98446.72;;;20.36;100.00
21633;BME280;48765;51.568;8.840;2022-08-20T07:36:11;98449.81;;;20.08;100.00
21633;BME280;48765;51.568;8.840;2022-08-20T07:38:38;98450.03;;;20.03;100.00
21633;BME280;48765;51.568;8.840;2022-08-20T07:41:07;98453.63;;;20.23;100.00
21633;BME280;48765;51.568;8.840;2022-08-20T07:43:34;98462.31;;;20.29;100.00
21633;BME280;48765;51.568;8.840;2022-08-20T07:46:01;98453.50;;;20.26;100.00
21633;BME280;48765;51.568;8.840;2022-08-20T07:48:33;98457.50;;;20.36;100.00
21633;BME280;48765;51.568;8.840;2022-08-20T07:51:01;98454.84;;;20.15;100.00
21633;BME280;48765;51.568;8.840;2022-08-20T07:53:29;98462.19;;;20.51;100.00
21633;BME280;48765;51.568;8.840;2022-08-20T07:55:57;98455.09;;;20.30;100.00
21633;BME280;48765;51.568;8.840;2022-08-20T07:58:26;98461.47;;;20.27;100.00
21633;BME280;48765;51.568;8.840;2022-08-20T08:00:53;98469.28;;;20.14;100.00
21633;BME280;48765;51.568;8.840;2022-08-20T08:03:20;98471.91;;;19.96;100.00
21633;BME280;48765;51.568;8.840;2022-08-20T08:05:47;98462.44;;;20.26;100.00
21633;BME280;48765;51.568;8.840;2022-08-20T08:08:17;98464.63;;;20.37;100.00
21633;BME280;48765;51.568;8.840;2022-08-20T08:10:46;98461.41;;;20.49;100.00
21633;BME280;48765;51.568;8.840;2022-08-20T08:13:14;98459.25;;;20.37;100.00
21633;BME280;48765;51.568;8.840;2022-08-20T08:15:43;98459.16;;;20.59;100.00
21633;BME280;48765;51.568;8.840;2022-08-20T08:18:12;98452.31;;;20.71;100.00
21633;BME280;48765;51.568;8.840;2022-08-20T08:20:42;98462.78;;;20.77;100.00
21633;BME280;48765;51.568;8.840;2022-08-20T08:23:09;98457.75;;;20.69;100.00
21633;BME280;48765;51.568;8.840;2022-08-20T08:25:37;98461.66;;;20.43;100.00
21633;BME280;48765;51.568;8.840;2022-08-20T08:28:06;98466.72;;;20.70;100.00
21633;BME280;48765;51.568;8.840;2022-08-20T08:30:35;98469.34;;;20.90;100.00
21633;BME280;48765;51.568;8.840;2022-08-20T08:33:03;98460.59;;;21.04;100.00
21633;BME280;48765;51.568;8.840;2022-08-20T08:35:47;98469.38;;;21.07;100.00
21633;BME280;48765;51.568;8.840;2022-08-20T08:38:15;98471.16;;;21.26;100.00
21633;BME280;48765;51.568;8.840;2022-08-20T08:40:42;98470.66;;;21.00;100.00
21633;BME280;48765;51.568;8.840;2022-08-20T08:43:10;98473.91;;;21.07;100.00
21633;BME280;48765;51.568;8.840;2022-08-20T08:45:38;98478.38;;;20.89;100.00
21633;BME280;48765;51.568;8.840;2022-08-20T08:48:11;98474.72;;;21.45;100.00
21633;BME280;48765;51.568;8.840;2022-08-20T08:50:39;98481.41;;;21.73;100.00
21633;BME280;48765;51.568;8.840;2022-08-20T08:53:09;98480.28;;;21.59;100.00
21633;BME280;48765;51.568;8.840;2022-08-20T08:55:36;98484.72;;;21.43;100.00
21633;BME280;48765;51.568;8.840;2022-08-20T08:58:04;98492.19;;;21.19;100.00
21633;BME280;48765;51.568;8.840;2022-08-20T09:00:31;98483.28;;;21.17;100.00
21633;BME280;48765;51.568;8.840;2022-08-20T09:03:00;98489.78;;;21.49;100.00
21633;BME280;48765;51.568;8.840;2022-08-20T09:05:32;98490.16;;;21.60;100.00
21633;BME280;48765;51.568;8.840;2022-08-20T09:08:01;98487.03;;;21.68;100.00
21633;BME280;48765;51.568;8.840;2022-08-20T09:10:29;98485.19;;;21.15;100.00
21633;BME280;48765;51.568;8.840;2022-08-20T09:12:56;98493.81;;;21.40;100.00
21633;BME280;48765;51.568;8.840;2022-08-20T09:15:23;98496.97;;;21.50;100.00
21633;BME280;48765;51.568;8.840;2022-08-20T09:17:50;98495.38;;;21.46;100.00
21633;BME280;48765;51.568;8.840;2022-08-20T09:20:17;98494.50;;;21.80;100.00
21633;BME280;48765;51.568;8.840;2022-08-20T09:22:46;98500.69;;;22.00;100.00
21633;BME280;48765;51.568;8.840;2022-08-20T09:25:12;98487.91;;;21.51;100.00
21633;BME280;48765;51.568;8.840;2022-08-20T09:27:39;98503.63;;;21.78;100.00
21633;BME280;48765;51.568;8.840;2022-08-20T09:30:07;98493.31;;;21.86;100.00
21633;BME280;48765;51.568;8.840;2022-08-20T09:32:34;98502.97;;;21.73;100.00
21633;BME280;48765;51.568;8.840;2022-08-20T09:35:01;98499.28;;;21.92;100.00
21633;BME280;48765;51.568;8.840;2022-08-20T09:37:29;98498.84;;;21.83;100.00
21633;BME280;48765;51.568;8.840;2022-08-20T09:39:57;98500.75;;;21.46;100.00
21633;BME280;48765;51.568;8.840;2022-08-20T09:42:25;98493.13;;;21.54;100.00
21633;BME280;48765;51.568;8.840;2022-08-20T09:44:56;98498.69;;;21.68;100.00
21633;BME280;48765;51.568;8.840;2022-08-20T09:47:23;98501.25;;;21.72;100.00
21633;BME280;48765;51.568;8.840;2022-08-20T09:49:51;98500.63;;;21.84;100.00
21633;BME280;48765;51.568;8.840;2022-08-20T09:52:19;98504.09;;;21.86;100.00
21633;BME280;48765;51.568;8.840;2022-08-20T09:54:47;98499.19;;;21.94;100.00
21633;BME280;48765;51.568;8.840;2022-08-20T09:57:16;98497.69;;;21.88;100.00
21633;BME280;48765;51.568;8.840;2022-08-20T09:59:43;98490.47;;;21.89;100.00
21633;BME280;48765;51.568;8.840;2022-08-20T10:02:13;98486.94;;;22.04;100.00
21633;BME280;48765;51.568;8.840;2022-08-20T10:04:40;98489.28;;;22.12;100.00
21633;BME280;48765;51.568;8.840;2022-08-20T10:07:07;98497.94;;;22.18;100.00
21633;BME280;48765;51.568;8.840;2022-08-20T10:09:34;98492.53;;;22.18;100.00
21633;BME280;48765;51.568;8.840;2022-08-20T10:12:02;98499.25;;;22.27;100.00
21633;BME280;48765;51.568;8.840;2022-08-20T10:14:31;98497.06;;;22.18;100.00
21633;BME280;48765;51.568;8.840;2022-08-20T10:16:58;98499.50;;;22.05;100.00
21633;BME280;48765;51.568;8.840;2022-08-20T10:19:26;98499.34;;;22.26;100.00
21633;BME280;48765;51.568;8.840;2022-08-20T10:21:54;98499.41;;;22.57;100.00
21633;BME280;48765;51.568;8.840;2022-08-20T10:24:21;98494.81;;;22.09;100.00
21633;BME280;48765;51.568;8.840;2022-08-20T10:26:48;98493.59;;;22.65;100.00
21633;BME280;48765;51.568;8.840;2022-08-20T10:29:15;98496.06;;;22.85;100.00
21633;BME280;48765;51.568;8.840;2022-08-20T10:31:44;98511.91;;;22.60;100.00
21633;BME280;48765;51.568;8.840;2022-08-20T10:34:11;98509.91;;;22.30;100.00
21633;BME280;48765;51.568;8.840;2022-08-20T10:36:38;98518.41;;;22.23;100.00
21633;BME280;48765;51.568;8.840;2022-08-20T10:39:07;98520.47;;;22.17;100.00
21633;BME280;48765;51.568;8.840;2022-08-20T10:41:34;98512.28;;;22.36;100.00
21633;BME280;48765;51.568;8.840;2022-08-20T10:44:01;98503.53;;;21.97;100.00
21633;BME280;48765;51.568;8.840;2022-08-20T10:46:28;98508.53;;;22.04;100.00
21633;BME280;48765;51.568;8.840;2022-08-20T10:48:57;98501.56;;;22.35;100.00
21633;BME280;48765;51.568;8.840;2022-08-20T10:51:24;98503.16;;;22.04;100.00
21633;BME280;48765;51.568;8.840;2022-08-20T10:53:51;98512.53;;;22.32;100.00
21633;BME280;48765;51.568;8.840;2022-08-20T10:56:18;98511.88;;;21.92;100.00
21633;BME280;48765;51.568;8.840;2022-08-20T10:58:45;98513.34;;;22.16;100.00
21633;BME280;48765;51.568;8.840;2022-08-20T11:01:12;98503.00;;;22.07;100.00
21633;BME280;48765;51.568;8.840;2022-08-20T11:03:39;98505.13;;;22.01;100.00
21633;BME280;48765;51.568;8.840;2022-08-20T11:06:08;98514.72;;;22.06;100.00
21633;BME280;48765;51.568;8.840;2022-08-20T11:08:35;98519.25;;;22.06;100.00
21633;BME280;48765;51.568;8.840;2022-08-20T11:11:02;98514.91;;;22.03;100.00
21633;BME280;48765;51.568;8.840;2022-08-20T11:13:29;98523.00;;;22.03;100.00
21633;BME280;48765;51.568;8.840;2022-08-20T11:15:55;98517.75;;;21.65;100.00
21633;BME280;48765;51.568;8.840;2022-08-20T11:18:23;98526.81;;;21.64;100.00
21633;BME280;48765;51.568;8.840;2022-08-20T11:20:50;98528.41;;;21.50;100.00
21633;BME280;48765;51.568;8.840;2022-08-20T11:23:18;98533.91;;;21.29;100.00
21633;BME280;48765;51.568;8.840;2022-08-20T11:25:45;98532.06;;;21.30;100.00
21633;BME280;48765;51.568;8.840;2022-08-20T11:28:12;98531.66;;;21.39;100.00
21633;BME280;48765;51.568;8.840;2022-08-20T11:30:39;98533.63;;;21.35;100.00
21633;BME280;48765;51.568;8.840;2022-08-20T11:33:06;98539.09;;;21.70;100.00
21633;BME280;48765;51.568;8.840;2022-08-20T11:35:34;98534.72;;;21.50;100.00
21633;BME280;48765;51.568;8.840;2022-08-20T11:38:01;98541.56;;;21.92;100.00
21633;BME280;48765;51.568;8.840;2022-08-20T11:40:30;98541.34;;;21.79;100.00
21633;BME280;48765;51.568;8.840;2022-08-20T11:42:57;98542.91;;;21.66;100.00
21633;BME280;48765;51.568;8.840;2022-08-20T11:45:24;98543.91;;;21.63;100.00
21633;BME280;48765;51.568;8.840;2022-08-20T11:47:51;98544.25;;;21.75;100.00
21633;BME280;48765;51.568;8.840;2022-08-20T11:50:19;98545.09;;;21.58;100.00
21633;BME280;48765;51.568;8.840;2022-08-20T11:52:46;98547.56;;;21.62;100.00
21633;BME280;48765;51.568;8.840;2022-08-20T11:55:14;98555.69;;;21.43;100.00
21633;BME280;48765;51.568;8.840;2022-08-20T11:57:43;98546.47;;;21.66;100.00
21633;BME280;48765;51.568;8.840;2022-08-20T12:00:12;98541.34;;;21.79;100.00
21633;BME280;48765;51.568;8.840;2022-08-20T12:02:39;98546.78;;;21.78;100.00
21633;BME280;48765;51.568;8.840;2022-08-20T12:05:06;98540.19;;;21.66;100.00
21633;BME280;48765;51.568;8.840;2022-08-20T12:07:34;98548.72;;;21.93;100.00
21633;BME280;48765;51.568;8.840;2022-08-20T12:10:01;98552.13;;;21.43;100.00
21633;BME280;48765;51.568;8.840;2022-08-20T12:12:27;98550.66;;;20.98;100.00
21633;BME280;48765;51.568;8.840;2022-08-20T12:14:56;98551.72;;;21.69;100.00
21633;BME280;48765;51.568;8.840;2022-08-20T12:17:23;98542.66;;;21.71;100.00
21633;BME280;48765;51.568;8.840;2022-08-20T12:19:51;98550.72;;;21.53;100.00
21633;BME280;48765;51.568;8.840;2022-08-20T12:22:19;98550.78;;;21.88;100.00
21633;BME280;48765;51.568;8.840;2022-08-20T12:24:46;98555.06;;;22.09;100.00
21633;BME280;48765;51.568;8.840;2022-08-20T12:27:14;98550.53;;;22.10;100.00
21633;BME280;48765;51.568;8.840;2022-08-20T12:29:42;98552.06;;;22.33;100.00
21633;BME280;48765;51.568;8.840;2022-08-20T12:32:11;98548.75;;;22.28;100.00
21633;BME280;48765;51.568;8.840;2022-08-20T12:34:39;98550.47;;;21.94;100.00
21633;BME280;48765;51.568;8.840;2022-08-20T12:37:07;98551.91;;;22.18;100.00
21633;BME280;48765;51.568;8.840;2022-08-20T12:39:37;98542.69;;;21.88;100.00
21633;BME280;48765;51.568;8.840;2022-08-20T12:42:04;98530.47;;;22.15;100.00
21633;BME280;48765;51.568;8.840;2022-08-20T12:44:31;98531.28;;;22.17;100.00
21633;BME280;48765;51.568;8.840;2022-08-20T12:47:05;98531.22;;;22.52;100.00
21633;BME280;48765;51.568;8.840;2022-08-20T12:49:34;98532.81;;;23.05;100.00
21633;BME280;48765;51.568;8.840;2022-08-20T12:52:01;98528.22;;;23.07;100.00
21633;BME280;48765;51.568;8.840;2022-08-20T12:54:28;98525.50;;;23.07;100.00